sensor_id;sensor_type;location;lat;lon;timestamp;P1;durP1;ratioP1;P2;durP2;ratioP2
22826;SDS011;11580;52.562;13.418;2023-08-01T00:01:43;4.70;;;4.30;;
22826;SDS011;11580;52.562;13.418;2023-08-01T00:04:10;4.57;;;4.17;;
22826;SDS011;11580;52.562;13.418;2023-08-01T00:06:37;4.00;;;3.70;;
22826;SDS011;11580;52.562;13.418;2023-08-01T00:09:04;7.40;;;5.37;;
22826;SDS011;11580;52.562;13.418;2023-08-01T00:11:33;5.13;;;4.63;;
22826;SDS011;11580;52.562;13.418;2023-08-01T00:14:00;4.50;;;4.10;;
22826;SDS011;11580;52.562;13.418;2023-08-01T00:16:27;4.10;;;3.70;;
22826;SDS011;11580;52.562;13.418;2023-08-01T00:18:54;3.90;;;3.60;;
22826;SDS011;11580;52.562;13.418;2023-08-01T00:21:21;4.80;;;4.23;;
22826;SDS011;11580;52.562;13.418;2023-08-01T00:23:48;3.93;;;3.63;;
22826;SDS011;11580;52.562;13.418;2023-08-01T00:26:17;3.90;;;3.60;;
22826;SDS011;11580;52.562;13.418;2023-08-01T00:28:45;3.90;;;3.50;;
22826;SDS011;11580;52.562;13.418;2023-08-01T00:31:12;3.50;;;3.23;;
22826;SDS011;11580;52.562;13.418;2023-08-01T00:33:39;3.63;;;3.33;;
22826;SDS011;11580;52.562;13.418;2023-08-01T00:36:06;5.50;;;4.03;;
22826;SDS011;11580;52.562;13.418;2023-08-01T00:38:36;3.90;;;3.57;;
22826;SDS011;11580;52.562;13.418;2023-08-01T00:41:03;4.10;;;3.70;;
22826;SDS011;11580;52.562;13.418;2023-08-01T00:43:31;4.30;;;4.00;;
22826;SDS011;11580;52.562;13.418;2023-08-01T00:46:00;4.37;;;3.67;;
22826;SDS011;11580;52.562;13.418;2023-08-01T00:48:30;3.37;;;3.07;;
22826;SDS011;11580;52.562;13.418;2023-08-01T00:50:59;3.70;;;3.40;;
22826;SDS011;11580;52.562;13.418;2023-08-01T00:53:31;2.97;;;2.77;;
22826;SDS011;11580;52.562;13.418;2023-08-01T00:55:59;2.97;;;2.67;;
22826;SDS011;11580;52.562;13.418;2023-08-01T00:58:27;3.10;;;2.80;;
22826;SDS011;11580;52.562;13.418;2023-08-01T01:00:54;3.43;;;3.13;;
22826;SDS011;11580;52.562;13.418;2023-08-01T01:03:23;3.00;;;2.80;;
22826;SDS011;11580;52.562;13.418;2023-08-01T01:05:52;3.00;;;2.77;;
22826;SDS011;11580;52.562;13.418;2023-08-01T01:08:35;2.60;;;2.37;;
22826;SDS011;11580;52.562;13.418;2023-08-01T01:11:02;2.77;;;2.47;;
22826;SDS011;11580;52.562;13.418;2023-08-01T01:13:30;2.97;;;2.70;;
22826;SDS011;11580;52.562;13.418;2023-08-01T01:15:57;2.40;;;2.20;;
22826;SDS011;11580;52.562;13.418;2023-08-01T01:18:26;3.00;;;2.70;;
22826;SDS011;11580;52.562;13.418;2023-08-01T01:20:54;3.37;;;2.90;;
22826;SDS011;11580;52.562;13.418;2023-08-01T01:23:21;2.77;;;2.57;;
22826;SDS011;11580;52.562;13.418;2023-08-01T01:25:50;3.00;;;2.80;;
22826;SDS011;11580;52.562;13.418;2023-08-01T01:28:19;2.70;;;2.50;;
22826;SDS011;11580;52.562;13.418;2023-08-01T01:30:47;3.83;;;3.43;;
22826;SDS011;11580;52.562;13.418;2023-08-01T01:33:15;3.83;;;3.53;;
22826;SDS011;11580;52.562;13.418;2023-08-01T01:35:43;2.93;;;2.73;;
22826;SDS011;11580;52.562;13.418;2023-08-01T01:38:12;2.80;;;2.60;;
22826;SDS011;11580;52.562;13.418;2023-08-01T01:40:39;3.93;;;2.80;;
22826;SDS011;11580;52.562;13.418;2023-08-01T01:43:06;2.90;;;2.70;;
22826;SDS011;11580;52.562;13.418;2023-08-01T01:45:33;3.10;;;2.80;;
22826;SDS011;11580;52.562;13.418;2023-08-01T01:48:00;3.33;;;2.90;;
22826;SDS011;11580;52.562;13.418;2023-08-01T01:50:27;2.90;;;2.60;;
22826;SDS011;11580;52.562;13.418;2023-08-01T01:52:55;3.60;;;3.17;;
22826;SDS011;11580;52.562;13.418;2023-08-01T01:55:23;3.30;;;3.00;;
22826;SDS011;11580;52.562;13.418;2023-08-01T01:57:51;3.30;;;3.00;;
22826;SDS011;11580;52.562;13.418;2023-08-01T02:00:18;7.03;;;3.07;;
22826;SDS011;11580;52.562;13.418;2023-08-01T02:02:45;4.40;;;2.87;;
22826;SDS011;11580;52.562;13.418;2023-08-01T02:05:12;3.43;;;3.13;;
22826;SDS011;11580;52.562;13.418;2023-08-01T02:07:39;5.67;;;3.30;;
22826;SDS011;11580;52.562;13.418;2023-08-01T02:10:07;3.87;;;3.57;;
22826;SDS011;11580;52.562;13.418;2023-08-01T02:12:36;3.70;;;2.90;;
22826;SDS011;11580;52.562;13.418;2023-08-01T02:15:03;3.77;;;3.47;;
22826;SDS011;11580;52.562;13.418;2023-08-01T02:17:32;3.47;;;3.17;;
22826;SDS011;11580;52.562;13.418;2023-08-01T02:19:59;3.17;;;2.87;;
22826;SDS011;11580;52.562;13.418;2023-08-01T02:22:26;3.37;;;3.07;;
22826;SDS011;11580;52.562;13.418;2023-08-01T02:24:54;3.30;;;3.10;;
22826;SDS011;11580;52.562;13.418;2023-08-01T02:27:21;3.47;;;3.17;;
22826;SDS011;11580;52.562;13.418;2023-08-01T02:29:49;3.73;;;3.30;;
22826;SDS011;11580;52.562;13.418;2023-08-01T02:32:17;3.93;;;3.63;;
22826;SDS011;11580;52.562;13.418;2023-08-01T02:34:44;3.63;;;3.33;;
22826;SDS011;11580;52.562;13.418;2023-08-01T02:37:11;5.37;;;3.60;;
22826;SDS011;11580;52.562;13.418;2023-08-01T02:39:38;4.40;;;3.20;;
22826;SDS011;11580;52.562;13.418;2023-08-01T02:42:06;3.13;;;2.93;;
22826;SDS011;11580;52.562;13.418;2023-08-01T02:44:33;3.87;;;3.03;;
22826;SDS011;11580;52.562;13.418;2023-08-01T02:47:02;3.43;;;3.03;;
22826;SDS011;11580;52.562;13.418;2023-08-01T02:49:31;3.20;;;3.00;;
22826;SDS011;11580;52.562;13.418;2023-08-01T02:51:58;3.50;;;3.20;;
22826;SDS011;11580;52.562;13.418;2023-08-01T02:54:25;3.50;;;3.30;;
22826;SDS011;11580;52.562;13.418;2023-08-01T02:56:52;3.80;;;3.50;;
22826;SDS011;11580;52.562;13.418;2023-08-01T02:59:19;3.60;;;3.30;;
22826;SDS011;11580;52.562;13.418;2023-08-01T03:01:46;3.63;;;3.40;;
22826;SDS011;11580;52.562;13.418;2023-08-01T03:04:15;4.03;;;3.60;;
22826;SDS011;11580;52.562;13.418;2023-08-01T03:06:42;3.70;;;3.40;;
22826;SDS011;11580;52.562;13.418;2023-08-01T03:09:10;3.43;;;3.13;;
22826;SDS011;11580;52.562;13.418;2023-08-01T03:11:37;3.63;;;3.33;;
22826;SDS011;11580;52.562;13.418;2023-08-01T03:14:04;2.80;;;2.60;;
22826;SDS011;11580;52.562;13.418;2023-08-01T03:16:32;3.87;;;3.00;;
22826;SDS011;11580;52.562;13.418;2023-08-01T03:18:59;4.70;;;4.30;;
22826;SDS011;11580;52.562;13.418;2023-08-01T03:21:32;3.67;;;3.37;;
22826;SDS011;11580;52.562;13.418;2023-08-01T03:23:59;3.50;;;3.20;;
22826;SDS011;11580;52.562;13.418;2023-08-01T03:26:27;3.67;;;3.37;;
22826;SDS011;11580;52.562;13.418;2023-08-01T03:28:55;4.70;;;4.40;;
22826;SDS011;11580;52.562;13.418;2023-08-01T03:31:22;3.50;;;3.30;;
22826;SDS011;11580;52.562;13.418;2023-08-01T03:33:49;3.23;;;2.93;;
22826;SDS011;11580;52.562;13.418;2023-08-01T03:36:17;3.40;;;3.10;;
22826;SDS011;11580;52.562;13.418;2023-08-01T03:38:45;4.90;;;3.20;;
22826;SDS011;11580;52.562;13.418;2023-08-01T03:41:13;3.70;;;3.40;;
22826;SDS011;11580;52.562;13.418;2023-08-01T03:43:40;3.47;;;3.17;;
22826;SDS011;11580;52.562;13.418;2023-08-01T03:46:07;3.73;;;3.43;;
22826;SDS011;11580;52.562;13.418;2023-08-01T03:48:35;4.20;;;3.90;;
22826;SDS011;11580;52.562;13.418;2023-08-01T03:51:03;3.40;;;3.20;;
22826;SDS011;11580;52.562;13.418;2023-08-01T03:53:30;3.73;;;3.43;;
22826;SDS011;11580;52.562;13.418;2023-08-01T03:55:58;3.73;;;3.40;;
22826;SDS011;11580;52.562;13.418;2023-08-01T03:58:25;3.50;;;3.20;;
22826;SDS011;11580;52.562;13.418;2023-08-01T04:00:52;3.63;;;3.33;;
22826;SDS011;11580;52.562;13.418;2023-08-01T04:03:19;3.70;;;3.40;;
22826;SDS011;11580;52.562;13.418;2023-08-01T04:05:47;3.40;;;3.20;;
22826;SDS011;11580;52.562;13.418;2023-08-01T04:08:14;3.40;;;3.07;;
22826;SDS011;11580;52.562;13.418;2023-08-01T04:10:41;4.03;;;3.73;;
22826;SDS011;11580;52.562;13.418;2023-08-01T04:13:10;3.57;;;3.27;;
22826;SDS011;11580;52.562;13.418;2023-08-01T04:15:37;3.07;;;2.87;;
22826;SDS011;11580;52.562;13.418;2023-08-01T04:18:04;3.70;;;3.30;;
22826;SDS011;11580;52.562;13.418;2023-08-01T04:20:31;3.93;;;3.63;;
22826;SDS011;11580;52.562;13.418;2023-08-01T04:22:58;3.30;;;3.00;;
22826;SDS011;11580;52.562;13.418;2023-08-01T04:25:25;3.40;;;3.20;;
22826;SDS011;11580;52.562;13.418;2023-08-01T04:27:53;3.50;;;3.20;;
22826;SDS011;11580;52.562;13.418;2023-08-01T04:30:22;3.30;;;3.10;;
22826;SDS011;11580;52.562;13.418;2023-08-01T04:32:49;3.23;;;3.03;;
22826;SDS011;11580;52.562;13.418;2023-08-01T04:35:16;3.27;;;3.07;;
22826;SDS011;11580;52.562;13.418;2023-08-01T04:37:43;3.20;;;2.90;;
22826;SDS011;11580;52.562;13.418;2023-08-01T04:40:11;3.17;;;2.87;;
22826;SDS011;11580;52.562;13.418;2023-08-01T04:42:38;3.23;;;3.00;;
22826;SDS011;11580;52.562;13.418;2023-08-01T04:45:05;2.90;;;2.60;;
22826;SDS011;11580;52.562;13.418;2023-08-01T04:47:35;2.80;;;2.60;;
22826;SDS011;11580;52.562;13.418;2023-08-01T04:50:02;2.90;;;2.70;;
22826;SDS011;11580;52.562;13.418;2023-08-01T04:52:30;3.00;;;2.80;;
22826;SDS011;11580;52.562;13.418;2023-08-01T04:54:57;2.87;;;2.67;;
22826;SDS011;11580;52.562;13.418;2023-08-01T04:57:24;3.10;;;2.80;;
22826;SDS011;11580;52.562;13.418;2023-08-01T04:59:51;2.97;;;2.70;;
22826;SDS011;11580;52.562;13.418;2023-08-01T05:02:18;3.87;;;3.40;;
22826;SDS011;11580;52.562;13.418;2023-08-01T05:04:47;3.20;;;2.90;;
22826;SDS011;11580;52.562;13.418;2023-08-01T05:07:14;2.60;;;2.40;;
22826;SDS011;11580;52.562;13.418;2023-08-01T05:09:41;3.37;;;3.07;;
22826;SDS011;11580;52.562;13.418;2023-08-01T05:12:08;3.33;;;2.53;;
22826;SDS011;11580;52.562;13.418;2023-08-01T05:14:35;3.00;;;2.80;;
22826;SDS011;11580;52.562;13.418;2023-08-01T05:17:03;3.00;;;2.77;;
22826;SDS011;11580;52.562;13.418;2023-08-01T05:19:30;4.20;;;3.63;;
22826;SDS011;11580;52.562;13.418;2023-08-01T05:21:59;3.23;;;2.90;;
22826;SDS011;11580;52.562;13.418;2023-08-01T05:24:26;3.17;;;2.97;;
22826;SDS011;11580;52.562;13.418;2023-08-01T05:26:53;3.03;;;2.83;;
22826;SDS011;11580;52.562;13.418;2023-08-01T05:29:20;3.03;;;2.83;;
22826;SDS011;11580;52.562;13.418;2023-08-01T05:31:47;2.87;;;2.67;;
22826;SDS011;11580;52.562;13.418;2023-08-01T05:34:14;3.30;;;3.00;;
22826;SDS011;11580;52.562;13.418;2023-08-01T05:36:41;3.20;;;3.00;;
22826;SDS011;11580;52.562;13.418;2023-08-01T05:39:10;3.90;;;2.90;;
22826;SDS011;11580;52.562;13.418;2023-08-01T05:41:37;3.03;;;2.83;;
22826;SDS011;11580;52.562;13.418;2023-08-01T05:44:04;3.20;;;3.00;;
22826;SDS011;11580;52.562;13.418;2023-08-01T05:46:31;2.90;;;2.70;;
22826;SDS011;11580;52.562;13.418;2023-08-01T05:48:58;3.17;;;2.80;;
22826;SDS011;11580;52.562;13.418;2023-08-01T05:51:25;4.37;;;3.10;;
22826;SDS011;11580;52.562;13.418;2023-08-01T05:53:52;3.40;;;3.10;;
22826;SDS011;11580;52.562;13.418;2023-08-01T05:56:21;3.37;;;3.17;;
22826;SDS011;11580;52.562;13.418;2023-08-01T05:58:48;6.27;;;3.57;;
22826;SDS011;11580;52.562;13.418;2023-08-01T06:01:16;3.13;;;2.83;;
22826;SDS011;11580;52.562;13.418;2023-08-01T06:03:44;3.27;;;3.00;;
22826;SDS011;11580;52.562;13.418;2023-08-01T06:06:11;3.27;;;3.00;;
22826;SDS011;11580;52.562;13.418;2023-08-01T06:08:39;2.90;;;2.70;;
22826;SDS011;11580;52.562;13.418;2023-08-01T06:11:06;3.40;;;3.20;;
22826;SDS011;11580;52.562;13.418;2023-08-01T06:13:34;3.43;;;3.13;;
22826;SDS011;11580;52.562;13.418;2023-08-01T06:16:01;3.87;;;3.33;;
22826;SDS011;11580;52.562;13.418;2023-08-01T06:18:29;3.17;;;2.97;;
22826;SDS011;11580;52.562;13.418;2023-08-01T06:20:56;3.57;;;3.37;;
22826;SDS011;11580;52.562;13.418;2023-08-01T06:23:23;4.37;;;3.63;;
22826;SDS011;11580;52.562;13.418;2023-08-01T06:25:50;2.93;;;2.73;;
22826;SDS011;11580;52.562;13.418;2023-08-01T06:28:18;2.90;;;2.17;;
22826;SDS011;11580;52.562;13.418;2023-08-01T06:30:46;3.50;;;3.20;;
22826;SDS011;11580;52.562;13.418;2023-08-01T06:33:13;3.27;;;3.00;;
22826;SDS011;11580;52.562;13.418;2023-08-01T06:35:40;5.00;;;2.93;;
22826;SDS011;11580;52.562;13.418;2023-08-01T06:38:07;3.10;;;2.90;;
22826;SDS011;11580;52.562;13.418;2023-08-01T06:40:34;3.57;;;3.13;;
22826;SDS011;11580;52.562;13.418;2023-08-01T06:43:02;3.43;;;3.17;;
22826;SDS011;11580;52.562;13.418;2023-08-01T06:45:29;3.00;;;2.67;;
22826;SDS011;11580;52.562;13.418;2023-08-01T06:47:57;3.10;;;2.90;;
22826;SDS011;11580;52.562;13.418;2023-08-01T06:50:24;3.60;;;2.77;;
22826;SDS011;11580;52.562;13.418;2023-08-01T06:52:51;2.73;;;2.53;;
22826;SDS011;11580;52.562;13.418;2023-08-01T06:55:18;3.30;;;2.90;;
22826;SDS011;11580;52.562;13.418;2023-08-01T06:57:45;2.67;;;2.47;;
22826;SDS011;11580;52.562;13.418;2023-08-01T07:00:13;2.70;;;2.50;;
22826;SDS011;11580;52.562;13.418;2023-08-01T07:02:41;2.50;;;2.30;;
22826;SDS011;11580;52.562;13.418;2023-08-01T07:05:09;3.80;;;2.37;;
22826;SDS011;11580;52.562;13.418;2023-08-01T07:07:36;2.90;;;2.47;;
22826;SDS011;11580;52.562;13.418;2023-08-01T07:10:04;2.87;;;2.67;;
22826;SDS011;11580;52.562;13.418;2023-08-01T07:12:33;2.50;;;2.30;;
22826;SDS011;11580;52.562;13.418;2023-08-01T07:15:00;2.57;;;2.37;;
22826;SDS011;11580;52.562;13.418;2023-08-01T07:17:27;2.73;;;2.50;;
22826;SDS011;11580;52.562;13.418;2023-08-01T07:19:54;2.60;;;2.40;;
22826;SDS011;11580;52.562;13.418;2023-08-01T07:22:22;2.87;;;2.67;;
22826;SDS011;11580;52.562;13.418;2023-08-01T07:24:52;2.60;;;2.40;;
22826;SDS011;11580;52.562;13.418;2023-08-01T07:27:19;2.60;;;2.40;;
22826;SDS011;11580;52.562;13.418;2023-08-01T07:29:47;2.90;;;2.70;;
22826;SDS011;11580;52.562;13.418;2023-08-01T07:32:14;2.43;;;2.33;;
22826;SDS011;11580;52.562;13.418;2023-08-01T07:34:41;2.80;;;2.60;;
22826;SDS011;11580;52.562;13.418;2023-08-01T07:37:08;2.93;;;2.63;;
22826;SDS011;11580;52.562;13.418;2023-08-01T07:39:37;2.53;;;2.33;;
22826;SDS011;11580;52.562;13.418;2023-08-01T07:42:04;2.43;;;2.23;;
22826;SDS011;11580;52.562;13.418;2023-08-01T07:44:31;2.67;;;2.47;;
22826;SDS011;11580;52.562;13.418;2023-08-01T07:46:58;2.73;;;2.53;;
22826;SDS011;11580;52.562;13.418;2023-08-01T07:49:26;2.57;;;2.40;;
22826;SDS011;11580;52.562;13.418;2023-08-01T07:51:53;2.60;;;2.40;;
22826;SDS011;11580;52.562;13.418;2023-08-01T07:54:20;2.70;;;2.50;;
22826;SDS011;11580;52.562;13.418;2023-08-01T07:56:48;2.27;;;2.07;;
22826;SDS011;11580;52.562;13.418;2023-08-01T07:59:15;2.50;;;2.30;;
22826;SDS011;11580;52.562;13.418;2023-08-01T08:01:42;3.10;;;2.23;;
22826;SDS011;11580;52.562;13.418;2023-08-01T08:04:09;2.77;;;2.57;;
22826;SDS011;11580;52.562;13.418;2023-08-01T08:06:38;2.60;;;2.40;;
22826;SDS011;11580;52.562;13.418;2023-08-01T08:09:05;2.97;;;2.77;;
22826;SDS011;11580;52.562;13.418;2023-08-01T08:11:32;2.47;;;2.23;;
22826;SDS011;11580;52.562;13.418;2023-08-01T08:14:00;2.50;;;2.30;;
22826;SDS011;11580;52.562;13.418;2023-08-01T08:16:28;2.73;;;2.30;;
22826;SDS011;11580;52.562;13.418;2023-08-01T08:18:55;2.70;;;2.50;;
22826;SDS011;11580;52.562;13.418;2023-08-01T08:21:22;2.10;;;2.00;;
22826;SDS011;11580;52.562;13.418;2023-08-01T08:23:49;2.07;;;1.93;;
22826;SDS011;11580;52.562;13.418;2023-08-01T08:26:16;2.30;;;2.20;;
22826;SDS011;11580;52.562;13.418;2023-08-01T08:28:43;2.40;;;2.20;;
22826;SDS011;11580;52.562;13.418;2023-08-01T08:31:12;1.70;;;1.60;;
22826;SDS011;11580;52.562;13.418;2023-08-01T08:33:39;2.47;;;2.30;;
22826;SDS011;11580;52.562;13.418;2023-08-01T08:36:06;2.30;;;2.10;;
22826;SDS011;11580;52.562;13.418;2023-08-01T08:38:33;2.43;;;2.33;;
22826;SDS011;11580;52.562;13.418;2023-08-01T08:41:04;2.77;;;2.27;;
22826;SDS011;11580;52.562;13.418;2023-08-01T08:43:35;1.70;;;1.60;;
22826;SDS011;11580;52.562;13.418;2023-08-01T08:46:04;2.10;;;2.00;;
22826;SDS011;11580;52.562;13.418;2023-08-01T08:48:33;1.90;;;1.80;;
22826;SDS011;11580;52.562;13.418;2023-08-01T08:51:02;1.97;;;1.77;;
22826;SDS011;11580;52.562;13.418;2023-08-01T08:53:30;1.97;;;1.87;;
22826;SDS011;11580;52.562;13.418;2023-08-01T08:55:59;1.93;;;1.83;;
22826;SDS011;11580;52.562;13.418;2023-08-01T08:58:27;2.33;;;1.90;;
22826;SDS011;11580;52.562;13.418;2023-08-01T09:00:56;2.03;;;1.50;;
22826;SDS011;11580;52.562;13.418;2023-08-01T09:03:25;1.90;;;1.80;;
22826;SDS011;11580;52.562;13.418;2023-08-01T09:05:59;2.00;;;1.90;;
22826;SDS011;11580;52.562;13.418;2023-08-01T09:08:32;2.93;;;2.20;;
22826;SDS011;11580;52.562;13.418;2023-08-01T09:11:03;1.60;;;1.50;;
22826;SDS011;11580;52.562;13.418;2023-08-01T09:13:30;1.80;;;1.67;;
22826;SDS011;11580;52.562;13.418;2023-08-01T09:15:57;1.83;;;1.73;;
22826;SDS011;11580;52.562;13.418;2023-08-01T09:18:27;1.30;;;1.20;;
22826;SDS011;11580;52.562;13.418;2023-08-01T09:20:56;1.40;;;1.30;;
22826;SDS011;11580;52.562;13.418;2023-08-01T09:23:27;1.70;;;1.60;;
22826;SDS011;11580;52.562;13.418;2023-08-01T09:25:55;1.50;;;1.40;;
22826;SDS011;11580;52.562;13.418;2023-08-01T09:28:23;1.60;;;1.50;;
22826;SDS011;11580;52.562;13.418;2023-08-01T09:30:52;1.63;;;1.53;;
22826;SDS011;11580;52.562;13.418;2023-08-01T09:33:22;1.70;;;1.60;;
22826;SDS011;11580;52.562;13.418;2023-08-01T09:35:50;1.67;;;1.57;;
22826;SDS011;11580;52.562;13.418;2023-08-01T09:38:19;1.67;;;1.10;;
22826;SDS011;11580;52.562;13.418;2023-08-01T09:40:46;1.07;;;0.97;;
22826;SDS011;11580;52.562;13.418;2023-08-01T09:43:15;1.20;;;1.10;;
22826;SDS011;11580;52.562;13.418;2023-08-01T09:45:51;1.40;;;1.30;;
22826;SDS011;11580;52.562;13.418;2023-08-01T09:48:23;0.90;;;0.90;;
22826;SDS011;11580;52.562;13.418;2023-08-01T09:50:52;1.00;;;0.90;;
22826;SDS011;11580;52.562;13.418;2023-08-01T09:53:32;1.23;;;1.13;;
22826;SDS011;11580;52.562;13.418;2023-08-01T09:56:01;1.30;;;1.20;;
22826;SDS011;11580;52.562;13.418;2023-08-01T09:58:29;1.00;;;1.00;;
22826;SDS011;11580;52.562;13.418;2023-08-01T10:01:00;0.93;;;0.90;;
22826;SDS011;11580;52.562;13.418;2023-08-01T10:03:28;0.93;;;0.93;;
22826;SDS011;11580;52.562;13.418;2023-08-01T10:05:55;1.23;;;1.23;;
22826;SDS011;11580;52.562;13.418;2023-08-01T10:08:24;1.00;;;1.00;;
22826;SDS011;11580;52.562;13.418;2023-08-01T10:10:55;1.57;;;1.30;;
22826;SDS011;11580;52.562;13.418;2023-08-01T10:13:23;1.10;;;1.10;;
22826;SDS011;11580;52.562;13.418;2023-08-01T10:15:50;1.40;;;1.03;;
22826;SDS011;11580;52.562;13.418;2023-08-01T10:18:18;1.20;;;1.10;;
22826;SDS011;11580;52.562;13.418;2023-08-01T10:20:47;1.17;;;1.07;;
22826;SDS011;11580;52.562;13.418;2023-08-01T10:23:16;1.40;;;1.30;;
22826;SDS011;11580;52.562;13.418;2023-08-01T10:25:44;1.00;;;1.00;;
22826;SDS011;11580;52.562;13.418;2023-08-01T10:28:14;1.30;;;1.20;;
22826;SDS011;11580;52.562;13.418;2023-08-01T10:30:41;1.40;;;1.10;;
22826;SDS011;11580;52.562;13.418;2023-08-01T10:33:08;0.97;;;0.97;;
22826;SDS011;11580;52.562;13.418;2023-08-01T10:35:38;1.13;;;1.10;;
22826;SDS011;11580;52.562;13.418;2023-08-01T10:38:06;1.20;;;0.90;;
22826;SDS011;11580;52.562;13.418;2023-08-01T10:40:36;1.57;;;0.87;;
22826;SDS011;11580;52.562;13.418;2023-08-01T10:43:05;1.17;;;1.00;;
22826;SDS011;11580;52.562;13.418;2023-08-01T10:45:46;1.30;;;1.20;;
22826;SDS011;11580;52.562;13.418;2023-08-01T10:48:13;1.47;;;1.27;;
22826;SDS011;11580;52.562;13.418;2023-08-01T10:50:40;1.63;;;1.43;;
22826;SDS011;11580;52.562;13.418;2023-08-01T10:53:08;2.73;;;1.30;;
22826;SDS011;11580;52.562;13.418;2023-08-01T10:55:42;1.27;;;1.17;;
22826;SDS011;11580;52.562;13.418;2023-08-01T10:58:12;3.63;;;1.33;;
22826;SDS011;11580;52.562;13.418;2023-08-01T11:00:39;1.50;;;1.40;;
22826;SDS011;11580;52.562;13.418;2023-08-01T11:03:10;1.00;;;0.90;;
22826;SDS011;11580;52.562;13.418;2023-08-01T11:05:37;1.20;;;1.10;;
22826;SDS011;11580;52.562;13.418;2023-08-01T11:08:04;1.47;;;1.00;;
22826;SDS011;11580;52.562;13.418;2023-08-01T11:10:32;1.43;;;1.10;;
22826;SDS011;11580;52.562;13.418;2023-08-01T11:12:59;1.00;;;0.90;;
22826;SDS011;11580;52.562;13.418;2023-08-01T11:15:26;0.80;;;0.80;;
22826;SDS011;11580;52.562;13.418;2023-08-01T11:17:54;2.03;;;1.00;;
22826;SDS011;11580;52.562;13.418;2023-08-01T11:20:24;1.17;;;1.07;;
22826;SDS011;11580;52.562;13.418;2023-08-01T11:22:53;1.60;;;1.17;;
22826;SDS011;11580;52.562;13.418;2023-08-01T11:25:32;1.77;;;1.47;;
22826;SDS011;11580;52.562;13.418;2023-08-01T11:28:01;1.67;;;1.53;;
22826;SDS011;11580;52.562;13.418;2023-08-01T11:30:33;1.47;;;1.30;;
22826;SDS011;11580;52.562;13.418;2023-08-01T11:33:01;2.07;;;1.87;;
22826;SDS011;11580;52.562;13.418;2023-08-01T11:35:31;2.00;;;1.83;;
22826;SDS011;11580;52.562;13.418;2023-08-01T11:37:58;1.93;;;1.80;;
22826;SDS011;11580;52.562;13.418;2023-08-01T11:40:26;1.90;;;1.80;;
22826;SDS011;11580;52.562;13.418;2023-08-01T11:42:56;2.33;;;2.10;;
22826;SDS011;11580;52.562;13.418;2023-08-01T11:45:23;2.27;;;2.13;;
22826;SDS011;11580;52.562;13.418;2023-08-01T11:47:51;2.33;;;2.13;;
22826;SDS011;11580;52.562;13.418;2023-08-01T11:50:22;2.50;;;2.30;;
22826;SDS011;11580;52.562;13.418;2023-08-01T11:52:53;2.30;;;2.20;;
22826;SDS011;11580;52.562;13.418;2023-08-01T11:55:20;2.40;;;2.30;;
22826;SDS011;11580;52.562;13.418;2023-08-01T11:57:56;2.80;;;2.60;;
22826;SDS011;11580;52.562;13.418;2023-08-01T12:00:25;2.00;;;1.90;;
22826;SDS011;11580;52.562;13.418;2023-08-01T12:03:02;2.20;;;2.10;;
22826;SDS011;11580;52.562;13.418;2023-08-01T12:05:31;2.50;;;2.30;;
22826;SDS011;11580;52.562;13.418;2023-08-01T12:08:08;2.30;;;2.20;;
22826;SDS011;11580;52.562;13.418;2023-08-01T12:10:38;2.27;;;2.17;;
22826;SDS011;11580;52.562;13.418;2023-08-01T12:13:06;2.77;;;2.53;;
22826;SDS011;11580;52.562;13.418;2023-08-01T12:15:45;3.27;;;2.97;;
22826;SDS011;11580;52.562;13.418;2023-08-01T12:18:19;2.93;;;2.63;;
22826;SDS011;11580;52.562;13.418;2023-08-01T12:20:47;3.00;;;2.70;;
22826;SDS011;11580;52.562;13.418;2023-08-01T12:23:16;4.13;;;3.30;;
22826;SDS011;11580;52.562;13.418;2023-08-01T12:25:43;3.50;;;2.80;;
22826;SDS011;11580;52.562;13.418;2023-08-01T12:28:11;3.20;;;3.00;;
22826;SDS011;11580;52.562;13.418;2023-08-01T12:30:39;3.33;;;3.03;;
22826;SDS011;11580;52.562;13.418;2023-08-01T12:33:07;3.57;;;3.27;;
22826;SDS011;11580;52.562;13.418;2023-08-01T12:35:38;3.23;;;3.00;;
22826;SDS011;11580;52.562;13.418;2023-08-01T12:38:06;2.80;;;2.60;;
22826;SDS011;11580;52.562;13.418;2023-08-01T12:40:35;2.60;;;2.40;;
22826;SDS011;11580;52.562;13.418;2023-08-01T12:43:02;2.83;;;2.63;;
22826;SDS011;11580;52.562;13.418;2023-08-01T12:45:30;3.07;;;2.77;;
22826;SDS011;11580;52.562;13.418;2023-08-01T12:47:57;3.63;;;3.10;;
22826;SDS011;11580;52.562;13.418;2023-08-01T12:50:24;3.03;;;2.73;;
22826;SDS011;11580;52.562;13.418;2023-08-01T12:52:52;3.10;;;2.90;;
22826;SDS011;11580;52.562;13.418;2023-08-01T12:55:19;3.07;;;2.87;;
22826;SDS011;11580;52.562;13.418;2023-08-01T12:57:48;3.70;;;3.40;;
22826;SDS011;11580;52.562;13.418;2023-08-01T13:00:15;2.87;;;2.60;;
22826;SDS011;11580;52.562;13.418;2023-08-01T13:02:42;2.90;;;2.70;;
22826;SDS011;11580;52.562;13.418;2023-08-01T13:05:10;4.03;;;3.60;;
22826;SDS011;11580;52.562;13.418;2023-08-01T13:07:37;3.20;;;3.00;;
22826;SDS011;11580;52.562;13.418;2023-08-01T13:10:04;3.20;;;3.00;;
22826;SDS011;11580;52.562;13.418;2023-08-01T13:12:32;3.47;;;3.17;;
22826;SDS011;11580;52.562;13.418;2023-08-01T13:15:01;3.60;;;3.30;;
22826;SDS011;11580;52.562;13.418;2023-08-01T13:17:28;3.23;;;3.03;;
22826;SDS011;11580;52.562;13.418;2023-08-01T13:19:55;3.13;;;2.93;;
22826;SDS011;11580;52.562;13.418;2023-08-01T13:22:22;3.00;;;2.80;;
22826;SDS011;11580;52.562;13.418;2023-08-01T13:24:49;3.40;;;3.20;;
22826;SDS011;11580;52.562;13.418;2023-08-01T13:27:16;3.20;;;2.97;;
22826;SDS011;11580;52.562;13.418;2023-08-01T13:29:43;2.90;;;2.70;;
22826;SDS011;11580;52.562;13.418;2023-08-01T13:32:12;3.57;;;3.30;;
22826;SDS011;11580;52.562;13.418;2023-08-01T13:34:39;3.30;;;3.10;;
22826;SDS011;11580;52.562;13.418;2023-08-01T13:37:06;4.37;;;4.07;;
22826;SDS011;11580;52.562;13.418;2023-08-01T13:39:34;3.50;;;3.30;;
22826;SDS011;11580;52.562;13.418;2023-08-01T13:42:01;2.90;;;2.70;;
22826;SDS011;11580;52.562;13.418;2023-08-01T13:44:28;3.20;;;3.00;;
22826;SDS011;11580;52.562;13.418;2023-08-01T13:46:55;3.50;;;3.20;;
22826;SDS011;11580;52.562;13.418;2023-08-01T13:49:24;2.53;;;2.40;;
22826;SDS011;11580;52.562;13.418;2023-08-01T13:51:51;3.10;;;2.90;;
22826;SDS011;11580;52.562;13.418;2023-08-01T13:54:19;3.07;;;2.87;;
22826;SDS011;11580;52.562;13.418;2023-08-01T13:56:46;3.37;;;3.07;;
22826;SDS011;11580;52.562;13.418;2023-08-01T13:59:13;2.87;;;2.63;;
22826;SDS011;11580;52.562;13.418;2023-08-01T14:01:40;2.80;;;2.60;;
22826;SDS011;11580;52.562;13.418;2023-08-01T14:04:07;3.53;;;3.23;;
22826;SDS011;11580;52.562;13.418;2023-08-01T14:06:36;4.00;;;3.27;;
22826;SDS011;11580;52.562;13.418;2023-08-01T14:09:03;3.47;;;3.27;;
22826;SDS011;11580;52.562;13.418;2023-08-01T14:11:30;3.70;;;3.40;;
22826;SDS011;11580;52.562;13.418;2023-08-01T14:13:57;3.23;;;3.03;;
22826;SDS011;11580;52.562;13.418;2023-08-01T14:16:24;2.87;;;2.67;;
22826;SDS011;11580;52.562;13.418;2023-08-01T14:18:51;3.00;;;2.70;;
22826;SDS011;11580;52.562;13.418;2023-08-01T14:21:18;3.20;;;2.70;;
22826;SDS011;11580;52.562;13.418;2023-08-01T14:23:47;3.20;;;3.00;;
22826;SDS011;11580;52.562;13.418;2023-08-01T14:26:14;2.90;;;2.70;;
22826;SDS011;11580;52.562;13.418;2023-08-01T14:28:41;2.80;;;2.60;;
22826;SDS011;11580;52.562;13.418;2023-08-01T14:31:08;3.83;;;3.53;;
22826;SDS011;11580;52.562;13.418;2023-08-01T14:33:35;2.90;;;2.60;;
22826;SDS011;11580;52.562;13.418;2023-08-01T14:36:06;3.07;;;2.87;;
22826;SDS011;11580;52.562;13.418;2023-08-01T14:38:37;3.57;;;3.00;;